sensor_id;sensor_type;location;lat;lon;timestamp;pressure;altitude;pressure_sealevel;temperature;humidity
27805;BME280;15183;51.350;11.102;2023-08-30T00:01:29;99306.41;;;17.62;65.15
27805;BME280;15183;51.350;11.102;2023-08-30T00:03:55;99319.53;;;17.63;64.91
27805;BME280;15183;51.350;11.102;2023-08-30T00:06:22;99293.22;;;17.46;65.26
27805;BME280;15183;51.350;11.102;2023-08-30T00:08:48;99320.38;;;17.59;65.45
27805;BME280;15183;51.350;11.102;2023-08-30T00:11:16;99325.22;;;17.57;65.65
27805;BME280;15183;51.350;11.102;2023-08-30T00:13:43;99308.78;;;17.44;64.96
27805;BME280;15183;51.350;11.102;2023-08-30T00:16:10;99318.41;;;17.45;65.24
27805;BME280;15183;51.350;11.102;2023-08-30T00:18:36;99308.59;;;17.35;65.57
27805;BME280;15183;51.350;11.102;2023-08-30T00:21:04;99313.06;;;17.40;65.48
27805;BME280;15183;51.350;11.102;2023-08-30T00:23:30;99333.66;;;17.45;65.45
27805;BME280;15183;51.350;11.102;2023-08-30T00:25:58;99307.81;;;17.30;65.61
27805;BME280;15183;51.350;11.102;2023-08-30T00:28:25;99340.41;;;17.37;65.72
27805;BME280;15183;51.350;11.102;2023-08-30T00:30:55;99316.16;;;17.28;65.70
27805;BME280;15183;51.350;11.102;2023-08-30T00:33:21;99312.84;;;17.12;65.64
27805;BME280;15183;51.350;11.102;2023-08-30T00:35:56;99299.00;;;17.05;66.18
27805;BME280;15183;51.350;11.102;2023-08-30T00:38:23;99308.03;;;17.09;66.03
27805;BME280;15183;51.350;11.102;2023-08-30T00:40:49;99330.91;;;17.26;66.19
27805;BME280;15183;51.350;11.102;2023-08-30T00:43:17;99332.50;;;17.27;66.29
27805;BME280;15183;51.350;11.102;2023-08-30T00:45:43;99308.22;;;17.18;66.14
27805;BME280;15183;51.350;11.102;2023-08-30T00:48:11;99312.72;;;17.23;66.22
27805;BME280;15183;51.350;11.102;2023-08-30T00:50:39;99328.16;;;17.31;66.36
27805;BME280;15183;51.350;11.102;2023-08-30T00:53:08;99307.88;;;17.25;65.99
27805;BME280;15183;51.350;11.102;2023-08-30T00:55:35;99337.69;;;17.42;66.18
27805;BME280;15183;51.350;11.102;2023-08-30T00:58:03;99329.66;;;17.42;65.70
27805;BME280;15183;51.350;11.102;2023-08-30T01:00:30;99342.53;;;17.40;65.83
27805;BME280;15183;51.350;11.102;2023-08-30T01:02:59;99330.63;;;17.27;66.16
27805;BME280;15183;51.350;11.102;2023-08-30T01:05:25;99347.94;;;17.35;65.88
27805;BME280;15183;51.350;11.102;2023-08-30T01:07:52;99352.78;;;17.33;65.94
27805;BME280;15183;51.350;11.102;2023-08-30T01:10:33;99347.16;;;17.34;66.18
27805;BME280;15183;51.350;11.102;2023-08-30T01:13:17;99336.34;;;17.15;66.03
27805;BME280;15183;51.350;11.102;2023-08-30T01:15:49;99344.34;;;17.20;66.14
27805;BME280;15183;51.350;11.102;2023-08-30T01:18:18;99324.16;;;16.99;66.36
27805;BME280;15183;51.350;11.102;2023-08-30T01:20:47;99285.03;;;16.73;66.24
27805;BME280;15183;51.350;11.102;2023-08-30T01:28:31;99331.63;;;17.02;66.40
27805;BME280;15183;51.350;11.102;2023-08-30T01:30:59;99338.84;;;17.06;66.29
27805;BME280;15183;51.350;11.102;2023-08-30T01:33:27;99304.53;;;16.79;66.38
27805;BME280;15183;51.350;11.102;2023-08-30T01:35:56;99337.81;;;17.02;66.52
27805;BME280;15183;51.350;11.102;2023-08-30T01:38:26;99290.97;;;16.65;65.99
27805;BME280;15183;51.350;11.102;2023-08-30T01:40:56;99311.72;;;16.78;66.23
27805;BME280;15183;51.350;11.102;2023-08-30T01:43:25;99329.06;;;16.86;66.48
27805;BME280;15183;51.350;11.102;2023-08-30T01:45:52;99325.41;;;16.77;66.52
27805;BME280;15183;51.350;11.102;2023-08-30T01:48:20;99343.06;;;16.78;66.47
27805;BME280;15183;51.350;11.102;2023-08-30T01:50:47;99320.41;;;16.65;66.22
27805;BME280;15183;51.350;11.102;2023-08-30T01:53:13;99304.66;;;16.58;66.38
27805;BME280;15183;51.350;11.102;2023-08-30T01:55:41;99303.59;;;16.59;66.60
27805;BME280;15183;51.350;11.102;2023-08-30T01:58:11;99309.19;;;16.63;66.38
27805;BME280;15183;51.350;11.102;2023-08-30T02:00:37;99315.38;;;16.58;66.04
27805;BME280;15183;51.350;11.102;2023-08-30T02:03:12;99317.00;;;16.54;66.22
27805;BME280;15183;51.350;11.102;2023-08-30T02:06:02;99324.50;;;16.52;66.58
27805;BME280;15183;51.350;11.102;2023-08-30T02:08:46;99318.19;;;16.38;66.41
27805;BME280;15183;51.350;11.102;2023-08-30T02:11:22;99332.84;;;16.40;66.56
27805;BME280;15183;51.350;11.102;2023-08-30T02:13:50;99326.47;;;16.36;66.80
27805;BME280;15183;51.350;11.102;2023-08-30T02:16:19;99334.78;;;16.34;66.70
27805;BME280;15183;51.350;11.102;2023-08-30T02:18:49;99310.78;;;16.19;66.76
27805;BME280;15183;51.350;11.102;2023-08-30T02:21:16;99329.72;;;16.28;66.61
27805;BME280;15183;51.350;11.102;2023-08-30T02:23:43;99326.28;;;16.22;67.34
27805;BME280;15183;51.350;11.102;2023-08-30T02:26:09;99326.06;;;16.18;67.03
27805;BME280;15183;51.350;11.102;2023-08-30T02:28:36;99331.88;;;16.26;66.83
27805;BME280;15183;51.350;11.102;2023-08-30T02:31:04;99310.03;;;16.08;67.49
27805;BME280;15183;51.350;11.102;2023-08-30T02:33:31;99324.69;;;16.21;67.17
27805;BME280;15183;51.350;11.102;2023-08-30T02:35:57;99332.16;;;16.24;67.14
27805;BME280;15183;51.350;11.102;2023-08-30T02:38:24;99333.78;;;16.20;67.49
27805;BME280;15183;51.350;11.102;2023-08-30T02:40:50;99305.53;;;16.03;67.14
27805;BME280;15183;51.350;11.102;2023-08-30T02:43:17;99339.09;;;16.25;67.65
27805;BME280;15183;51.350;11.102;2023-08-30T02:45:43;99307.09;;;16.10;67.17
27805;BME280;15183;51.350;11.102;2023-08-30T02:48:11;99317.78;;;16.15;67.26
27805;BME280;15183;51.350;11.102;2023-08-30T02:50:38;99289.06;;;15.91;67.19
27805;BME280;15183;51.350;11.102;2023-08-30T02:53:04;99327.16;;;16.12;67.21
27805;BME280;15183;51.350;11.102;2023-08-30T02:55:31;99294.91;;;15.93;67.14
27805;BME280;15183;51.350;11.102;2023-08-30T02:57:57;99300.22;;;15.98;67.38
27805;BME280;15183;51.350;11.102;2023-08-30T03:00:24;99291.69;;;15.86;67.28
27805;BME280;15183;51.350;11.102;2023-08-30T03:02:51;99285.84;;;15.78;67.11
27805;BME280;15183;51.350;11.102;2023-08-30T03:05:18;99284.50;;;15.81;67.04
27805;BME280;15183;51.350;11.102;2023-08-30T03:07:45;99288.50;;;15.84;67.37
27805;BME280;15183;51.350;11.102;2023-08-30T03:10:12;99276.81;;;15.69;67.46
27805;BME280;15183;51.350;11.102;2023-08-30T03:12:39;99300.81;;;15.80;67.24
27805;BME280;15183;51.350;11.102;2023-08-30T03:15:07;99299.50;;;15.77;67.46
27805;BME280;15183;51.350;11.102;2023-08-30T03:17:35;99307.47;;;15.82;67.38
27805;BME280;15183;51.350;11.102;2023-08-30T03:20:01;99314.69;;;15.82;67.10
27805;BME280;15183;51.350;11.102;2023-08-30T03:22:31;99293.13;;;15.62;67.14
27805;BME280;15183;51.350;11.102;2023-08-30T03:24:58;99276.09;;;15.48;66.86
27805;BME280;15183;51.350;11.102;2023-08-30T03:27:25;99292.38;;;15.46;67.35
27805;BME280;15183;51.350;11.102;2023-08-30T03:29:51;99300.38;;;15.46;67.86
27805;BME280;15183;51.350;11.102;2023-08-30T03:32:19;99302.00;;;15.42;67.28
27805;BME280;15183;51.350;11.102;2023-08-30T03:34:48;99301.22;;;15.42;67.44
27805;BME280;15183;51.350;11.102;2023-08-30T03:37:15;99325.19;;;15.52;67.85
27805;BME280;15183;51.350;11.102;2023-08-30T03:39:43;99295.63;;;15.33;67.80
27805;BME280;15183;51.350;11.102;2023-08-30T03:42:10;99321.72;;;15.46;68.00
27805;BME280;15183;51.350;11.102;2023-08-30T03:44:38;99307.34;;;15.37;67.68
27805;BME280;15183;51.350;11.102;2023-08-30T03:47:05;99262.31;;;15.04;67.85
27805;BME280;15183;51.350;11.102;2023-08-30T03:49:33;99310.03;;;15.32;68.06
27805;BME280;15183;51.350;11.102;2023-08-30T03:52:00;99323.09;;;15.39;67.83
27805;BME280;15183;51.350;11.102;2023-08-30T03:54:28;99329.75;;;15.41;67.70
27805;BME280;15183;51.350;11.102;2023-08-30T03:56:55;99306.56;;;15.26;67.84
27805;BME280;15183;51.350;11.102;2023-08-30T03:59:21;99312.16;;;15.30;67.96
27805;BME280;15183;51.350;11.102;2023-08-30T04:01:49;99311.09;;;15.36;67.98
27805;BME280;15183;51.350;11.102;2023-08-30T04:04:16;99324.41;;;15.46;67.59
27805;BME280;15183;51.350;11.102;2023-08-30T04:06:44;99322.78;;;15.51;67.38
27805;BME280;15183;51.350;11.102;2023-08-30T04:09:10;99281.44;;;15.32;67.57
27805;BME280;15183;51.350;11.102;2023-08-30T04:11:37;99293.47;;;15.40;67.31
27805;BME280;15183;51.350;11.102;2023-08-30T04:14:04;99309.97;;;15.53;67.48
27805;BME280;15183;51.350;11.102;2023-08-30T04:16:31;99302.81;;;15.43;67.19
27805;BME280;15183;51.350;11.102;2023-08-30T04:18:57;99291.34;;;15.32;67.53
27805;BME280;15183;51.350;11.102;2023-08-30T04:21:24;99299.34;;;15.32;67.64
27805;BME280;15183;51.350;11.102;2023-08-30T04:23:50;99306.28;;;15.33;67.61
27805;BME280;15183;51.350;11.102;2023-08-30T04:26:17;99318.03;;;15.32;67.47
27805;BME280;15183;51.350;11.102;2023-08-30T04:28:44;99299.91;;;15.18;67.46
27805;BME280;15183;51.350;11.102;2023-08-30T04:31:12;99302.06;;;15.22;67.71
27805;BME280;15183;51.350;11.102;2023-08-30T04:33:39;99298.56;;;15.16;67.71
27805;BME280;15183;51.350;11.102;2023-08-30T04:36:06;99314.56;;;15.21;67.82
27805;BME280;15183;51.350;11.102;2023-08-30T04:38:33;99291.91;;;15.08;67.66
27805;BME280;15183;51.350;11.102;2023-08-30T04:41:00;99294.88;;;15.07;68.01
27805;BME280;15183;51.350;11.102;2023-08-30T04:43:26;99303.13;;;15.15;67.96
27805;BME280;15183;51.350;11.102;2023-08-30T04:45:53;99319.91;;;15.21;67.69
27805;BME280;15183;51.350;11.102;2023-08-30T04:48:20;99289.78;;;15.05;67.73
27805;BME280;15183;51.350;11.102;2023-08-30T04:50:46;99307.91;;;15.24;68.19
27805;BME280;15183;51.350;11.102;2023-08-30T04:53:13;99316.72;;;15.34;67.89
27805;BME280;15183;51.350;11.102;2023-08-30T04:55:39;99311.59;;;15.43;68.12
27805;BME280;15183;51.350;11.102;2023-08-30T04:58:06;99319.59;;;15.59;68.06
27805;BME280;15183;51.350;11.102;2023-08-30T05:00:33;99306.22;;;15.59;67.68
27805;BME280;15183;51.350;11.102;2023-08-30T05:03:00;99300.03;;;15.69;67.49
27805;BME280;15183;51.350;11.102;2023-08-30T05:05:26;99318.38;;;16.01;67.18
27805;BME280;15183;51.350;11.102;2023-08-30T05:07:54;99319.06;;;16.23;67.26
27805;BME280;15183;51.350;11.102;2023-08-30T05:10:21;99304.00;;;16.37;67.37
27805;BME280;15183;51.350;11.102;2023-08-30T05:12:47;99309.19;;;16.63;67.36
27805;BME280;15183;51.350;11.102;2023-08-30T05:15:18;99287.69;;;16.73;67.25
27805;BME280;15183;51.350;11.102;2023-08-30T05:17:45;99311.28;;;17.06;67.11
27805;BME280;15183;51.350;11.102;2023-08-30T05:20:12;99297.78;;;17.16;66.93
27805;BME280;15183;51.350;11.102;2023-08-30T05:22:39;99309.38;;;17.36;66.75
27805;BME280;15183;51.350;11.102;2023-08-30T05:25:06;99307.97;;;17.44;66.78
27805;BME280;15183;51.350;11.102;2023-08-30T05:27:33;99280.94;;;17.40;66.57
27805;BME280;15183;51.350;11.102;2023-08-30T05:29:59;99286.13;;;17.56;66.52
27805;BME280;15183;51.350;11.102;2023-08-30T05:32:26;99295.19;;;17.60;65.67
27805;BME280;15183;51.350;11.102;2023-08-30T05:34:52;99291.16;;;17.62;66.20
27805;BME280;15183;51.350;11.102;2023-08-30T05:37:19;99304.50;;;17.68;66.63
27805;BME280;15183;51.350;11.102;2023-08-30T05:39:45;99252.97;;;17.52;66.47
27805;BME280;15183;51.350;11.102;2023-08-30T05:42:11;99246.19;;;17.78;67.25
27805;BME280;15183;51.350;11.102;2023-08-30T05:44:39;99291.53;;;18.37;67.33
27805;BME280;15183;51.350;11.102;2023-08-30T05:47:06;99297.25;;;18.83;67.21
27805;BME280;15183;51.350;11.102;2023-08-30T05:49:34;99251.53;;;18.88;66.46
27805;BME280;15183;51.350;11.102;2023-08-30T05:52:02;99309.31;;;19.61;66.89
27805;BME280;15183;51.350;11.102;2023-08-30T05:54:29;99303.34;;;19.92;66.84
27805;BME280;15183;51.350;11.102;2023-08-30T05:56:57;99307.16;;;20.28;66.22
27805;BME280;15183;51.350;11.102;2023-08-30T05:59:24;99282.16;;;20.50;66.01
27805;BME280;15183;51.350;11.102;2023-08-30T06:01:50;99275.56;;;20.79;65.92
27805;BME280;15183;51.350;11.102;2023-08-30T06:04:17;99313.06;;;21.30;65.88
27805;BME280;15183;51.350;11.102;2023-08-30T06:06:44;99302.53;;;21.51;65.23
27805;BME280;15183;51.350;11.102;2023-08-30T06:09:10;99304.97;;;21.70;64.24
27805;BME280;15183;51.350;11.102;2023-08-30T06:11:38;99302.78;;;21.90;63.88
27805;BME280;15183;51.350;11.102;2023-08-30T06:14:05;99287.44;;;21.99;63.92
27805;BME280;15183;51.350;11.102;2023-08-30T06:16:32;99284.72;;;22.08;63.30
27805;BME280;15183;51.350;11.102;2023-08-30T06:18:59;99307.28;;;22.38;63.46
27805;BME280;15183;51.350;11.102;2023-08-30T06:21:26;99304.13;;;22.54;63.18
27805;BME280;15183;51.350;11.102;2023-08-30T06:23:52;99294.72;;;22.69;63.33
27805;BME280;15183;51.350;11.102;2023-08-30T06:26:18;99282.31;;;22.77;62.87
27805;BME280;15183;51.350;11.102;2023-08-30T06:28:45;99304.34;;;23.05;62.68
27805;BME280;15183;51.350;11.102;2023-08-30T06:31:12;99302.56;;;23.18;63.17
27805;BME280;15183;51.350;11.102;2023-08-30T06:33:39;99302.31;;;23.41;62.58
27805;BME280;15183;51.350;11.102;2023-08-30T06:36:05;99297.75;;;23.63;62.23
27805;BME280;15183;51.350;11.102;2023-08-30T06:38:32;99242.97;;;23.45;61.60
27805;BME280;15183;51.350;11.102;2023-08-30T06:40:58;99290.59;;;23.88;61.36
27805;BME280;15183;51.350;11.102;2023-08-30T06:43:26;99281.31;;;23.98;61.32
27805;BME280;15183;51.350;11.102;2023-08-30T06:45:52;99282.72;;;24.04;60.28
27805;BME280;15183;51.350;11.102;2023-08-30T06:48:19;99265.34;;;24.05;60.66
27805;BME280;15183;51.350;11.102;2023-08-30T06:50:45;99285.00;;;24.36;60.93
27805;BME280;15183;51.350;11.102;2023-08-30T06:53:12;99283.28;;;24.52;59.64
27805;BME280;15183;51.350;11.102;2023-08-30T06:55:39;99264.31;;;24.52;60.10
27805;BME280;15183;51.350;11.102;2023-08-30T06:58:06;99266.59;;;24.63;59.06
27805;BME280;15183;51.350;11.102;2023-08-30T07:00:32;99265.47;;;24.64;58.26
27805;BME280;15183;51.350;11.102;2023-08-30T07:02:59;99286.00;;;24.65;57.77
27805;BME280;15183;51.350;11.102;2023-08-30T07:05:27;99283.28;;;24.52;57.41
27805;BME280;15183;51.350;11.102;2023-08-30T07:07:53;99291.72;;;24.51;57.14
27805;BME280;15183;51.350;11.102;2023-08-30T07:10:19;99279.59;;;24.36;56.57
27805;BME280;15183;51.350;11.102;2023-08-30T07:12:46;99245.44;;;24.10;56.01
27805;BME280;15183;51.350;11.102;2023-08-30T07:15:14;99286.47;;;24.33;55.40
27805;BME280;15183;51.350;11.102;2023-08-30T07:17:43;99259.06;;;24.13;55.93
27805;BME280;15183;51.350;11.102;2023-08-30T07:20:11;99279.22;;;24.25;54.78
27805;BME280;15183;51.350;11.102;2023-08-30T07:22:39;99284.22;;;24.35;55.06
27805;BME280;15183;51.350;11.102;2023-08-30T07:25:07;99270.94;;;24.42;55.40
27805;BME280;15183;51.350;11.102;2023-08-30T07:27:36;99279.91;;;24.68;55.22
27805;BME280;15183;51.350;11.102;2023-08-30T07:30:03;99268.28;;;24.89;55.71
27805;BME280;15183;51.350;11.102;2023-08-30T07:32:30;99265.25;;;25.03;54.89
27805;BME280;15183;51.350;11.102;2023-08-30T07:34:57;99250.88;;;25.14;54.17
27805;BME280;15183;51.350;11.102;2023-08-30T07:37:25;99253.94;;;25.25;53.75
27805;BME280;15183;51.350;11.102;2023-08-30T07:39:52;99278.47;;;25.41;53.63
27805;BME280;15183;51.350;11.102;2023-08-30T07:42:19;99264.31;;;25.36;52.93
27805;BME280;15183;51.350;11.102;2023-08-30T07:44:45;99250.91;;;25.27;52.75
27805;BME280;15183;51.350;11.102;2023-08-30T07:47:11;99269.75;;;25.36;52.28
27805;BME280;15183;51.350;11.102;2023-08-30T07:49:38;99275.84;;;25.33;52.37
27805;BME280;15183;51.350;11.102;2023-08-30T07:52:06;99280.72;;;25.27;52.02
27805;BME280;15183;51.350;11.102;2023-08-30T07:54:34;99280.72;;;25.27;52.45
27805;BME280;15183;51.350;11.102;2023-08-30T07:57:04;99284.34;;;25.31;51.99
27805;BME280;15183;51.350;11.102;2023-08-30T07:59:36;99273.16;;;25.33;52.31
27805;BME280;15183;51.350;11.102;2023-08-30T08:02:04;99272.13;;;25.37;52.23
27805;BME280;15183;51.350;11.102;2023-08-30T08:04:32;99278.59;;;25.57;51.58
27805;BME280;15183;51.350;11.102;2023-08-30T08:07:00;99276.53;;;25.67;51.81
27805;BME280;15183;51.350;11.102;2023-08-30T08:09:27;99254.19;;;25.57;51.50
27805;BME280;15183;51.350;11.102;2023-08-30T08:11:53;99281.69;;;25.97;51.63
27805;BME280;15183;51.350;11.102;2023-08-30T08:14:20;99259.69;;;26.14;52.40
27805;BME280;15183;51.350;11.102;2023-08-30T08:16:46;99274.03;;;26.56;51.45
27805;BME280;15183;51.350;11.102;2023-08-30T08:19:13;99258.38;;;26.81;50.62
27805;BME280;15183;51.350;11.102;2023-08-30T08:21:39;99266.91;;;27.12;50.31
27805;BME280;15183;51.350;11.102;2023-08-30T08:24:07;99255.31;;;27.31;50.58
27805;BME280;15183;51.350;11.102;2023-08-30T08:26:34;99262.63;;;27.63;49.41
27805;BME280;15183;51.350;11.102;2023-08-30T08:29:00;99260.72;;;27.83;49.15
27805;BME280;15183;51.350;11.102;2023-08-30T08:31:27;99261.91;;;28.01;49.26
27805;BME280;15183;51.350;11.102;2023-08-30T08:34:28;99257.97;;;28.19;49.32
27805;BME280;15183;51.350;11.102;2023-08-30T08:36:55;99260.97;;;28.33;47.49
27805;BME280;15183;51.350;11.102;2023-08-30T08:39:21;99244.28;;;28.35;48.05
27805;BME280;15183;51.350;11.102;2023-08-30T08:41:47;99242.59;;;28.50;47.25
27805;BME280;15183;51.350;11.102;2023-08-30T08:44:16;99254.97;;;28.67;46.88
27805;BME280;15183;51.350;11.102;2023-08-30T08:46:42;99244.22;;;28.78;46.78
27805;BME280;15183;51.350;11.102;2023-08-30T08:49:17;99249.34;;;29.02;46.62
27805;BME280;15183;51.350;11.102;2023-08-30T08:51:44;99251.44;;;29.13;46.68
27805;BME280;15183;51.350;11.102;2023-08-30T08:54:12;99256.66;;;29.22;46.34
27805;BME280;15183;51.350;11.102;2023-08-30T08:56:40;99256.16;;;29.39;45.64
27805;BME280;15183;51.350;11.102;2023-08-30T08:59:06;99236.22;;;29.39;45.63
27805;BME280;15183;51.350;11.102;2023-08-30T09:01:35;99222.69;;;29.42;45.64
27805;BME280;15183;51.350;11.102;2023-08-30T09:04:08;99231.13;;;29.64;44.99
27805;BME280;15183;51.350;11.102;2023-08-30T09:06:36;99242.06;;;29.64;44.55
27805;BME280;15183;51.350;11.102;2023-08-30T09:09:04;99251.22;;;29.79;44.30
27805;BME280;15183;51.350;11.102;2023-08-30T09:11:32;99238.47;;;29.90;43.71
27805;BME280;15183;51.350;11.102;2023-08-30T09:13:58;99241.88;;;30.11;43.93
27805;BME280;15183;51.350;11.102;2023-08-30T09:16:25;99241.69;;;30.30;43.33
27805;BME280;15183;51.350;11.102;2023-08-30T09:19:04;99225.25;;;30.27;43.37
27805;BME280;15183;51.350;11.102;2023-08-30T09:21:30;99227.28;;;30.33;42.74
27805;BME280;15183;51.350;11.102;2023-08-30T09:24:06;99201.28;;;30.09;43.19
27805;BME280;15183;51.350;11.102;2023-08-30T09:26:34;99233.16;;;30.36;43.42
27805;BME280;15183;51.350;11.102;2023-08-30T09:29:06;99226.09;;;30.31;42.68
27805;BME280;15183;51.350;11.102;2023-08-30T09:31:37;99241.00;;;30.37;43.03
27805;BME280;15183;51.350;11.102;2023-08-30T09:34:06;99236.69;;;30.36;42.16
27805;BME280;15183;51.350;11.102;2023-08-30T09:36:41;99224.09;;;30.28;42.18
27805;BME280;15183;51.350;11.102;2023-08-30T09:39:10;99237.69;;;30.21;42.17
27805;BME280;15183;51.350;11.102;2023-08-30T09:41:47;99222.06;;;29.87;41.89
27805;BME280;15183;51.350;11.102;2023-08-30T09:46:53;99230.91;;;29.46;42.05
27805;BME280;15183;51.350;11.102;2023-08-30T09:49:25;99242.13;;;29.41;42.46
27805;BME280;15183;51.350;11.102;2023-08-30T09:51:54;99233.41;;;29.31;42.55
27805;BME280;15183;51.350;11.102;2023-08-30T09:54:24;99233.41;;;29.31;42.44
27805;BME280;15183;51.350;11.102;2023-08-30T09:56:50;99223.69;;;29.34;42.40
27805;BME280;15183;51.350;11.102;2023-08-30T09:59:22;99206.66;;;29.41;41.98
27805;BME280;15183;51.350;11.102;2023-08-30T10:01:51;99203.81;;;29.60;41.80
27805;BME280;15183;51.350;11.102;2023-08-30T10:04:20;99199.34;;;29.79;41.08
27805;BME280;15183;51.350;11.102;2023-08-30T10:06:47;99200.34;;;29.98;41.29
27805;BME280;15183;51.350;11.102;2023-08-30T10:09:15;99208.44;;;30.21;40.85
27805;BME280;15183;51.350;11.102;2023-08-30T10:11:43;99215.47;;;30.26;40.52
27805;BME280;15183;51.350;11.102;2023-08-30T10:14:10;99197.84;;;30.16;40.79
27805;BME280;15183;51.350;11.102;2023-08-30T10:16:46;99211.97;;;30.25;40.73
27805;BME280;15183;51.350;11.102;2023-08-30T10:22:04;99189.47;;;30.39;40.57
27805;BME280;15183;51.350;11.102;2023-08-30T10:25:21;99186.78;;;30.46;40.55
27805;BME280;15183;51.350;11.102;2023-08-30T10:27:49;99182.44;;;30.42;39.69
27805;BME280;15183;51.350;11.102;2023-08-30T10:30:19;99186.84;;;30.54;39.22
27805;BME280;15183;51.350;11.102;2023-08-30T10:32:45;99182.13;;;30.51;38.74
27805;BME280;15183;51.350;11.102;2023-08-30T10:35:15;99188.66;;;30.35;38.68
27805;BME280;15183;51.350;11.102;2023-08-30T10:37:53;99195.84;;;30.13;38.88
27805;BME280;15183;51.350;11.102;2023-08-30T10:40:20;99193.59;;;29.88;39.32
27805;BME280;15183;51.350;11.102;2023-08-30T10:43:28;99203.50;;;29.69;40.22
27805;BME280;15183;51.350;11.102;2023-08-30T10:46:05;99195.09;;;29.51;39.72
27805;BME280;15183;51.350;11.102;2023-08-30T10:48:40;99192.16;;;29.37;39.69
27805;BME280;15183;51.350;11.102;2023-08-30T10:51:41;99171.16;;;29.14;40.36
27805;BME280;15183;51.350;11.102;2023-08-30T10:54:14;99184.97;;;29.25;40.51
27805;BME280;15183;51.350;11.102;2023-08-30T10:56:58;99191.72;;;29.35;40.23
27805;BME280;15183;51.350;11.102;2023-08-30T10:59:27;99196.47;;;29.38;40.30
27805;BME280;15183;51.350;11.102;2023-08-30T11:01:56;99180.06;;;29.38;39.71
27805;BME280;15183;51.350;11.102;2023-08-30T11:04:27;99183.25;;;29.40;40.38
27805;BME280;15183;51.350;11.102;2023-08-30T11:06:54;99180.16;;;29.41;39.83
27805;BME280;15183;51.350;11.102;2023-08-30T11:09:23;99182.66;;;29.54;39.92
27805;BME280;15183;51.350;11.102;2023-08-30T11:11:51;99178.09;;;29.65;39.27
27805;BME280;15183;51.350;11.102;2023-08-30T11:14:18;99191.53;;;29.78;39.02
27805;BME280;15183;51.350;11.102;2023-08-30T11:16:46;99178.25;;;29.76;39.36
27805;BME280;15183;51.350;11.102;2023-08-30T11:19:14;99166.50;;;29.72;39.16
27805;BME280;15183;51.350;11.102;2023-08-30T11:21:44;99168.13;;;29.77;39.11
27805;BME280;15183;51.350;11.102;2023-08-30T11:24:11;99169.75;;;29.85;39.22
27805;BME280;15183;51.350;11.102;2023-08-30T11:26:38;99179.88;;;29.84;38.56
27805;BME280;15183;51.350;11.102;2023-08-30T11:29:09;99168.06;;;29.73;38.77
27805;BME280;15183;51.350;11.102;2023-08-30T11:31:36;99171.88;;;29.65;39.26
27805;BME280;15183;51.350;11.102;2023-08-30T11:34:03;99172.16;;;29.56;38.55
27805;BME280;15183;51.350;11.102;2023-08-30T11:36:32;99139.94;;;29.38;38.43
27805;BME280;15183;51.350;11.102;2023-08-30T11:39:01;99156.88;;;29.51;38.97
27805;BME280;15183;51.350;11.102;2023-08-30T11:41:31;99161.72;;;29.65;38.67
27805;BME280;15183;51.350;11.102;2023-08-30T11:43:58;99164.91;;;29.71;38.57
27805;BME280;15183;51.350;11.102;2023-08-30T11:46:25;99164.59;;;29.76;38.93
27805;BME280;15183;51.350;11.102;2023-08-30T11:48:52;99162.81;;;29.91;38.10
27805;BME280;15183;51.350;11.102;2023-08-30T11:51:19;99153.19;;;30.04;38.29
27805;BME280;15183;51.350;11.102;2023-08-30T11:53:46;99149.47;;;30.24;38.01
27805;BME280;15183;51.350;11.102;2023-08-30T11:56:12;99131.56;;;30.26;37.99
27805;BME280;15183;51.350;11.102;2023-08-30T11:58:39;99121.06;;;30.32;38.38
27805;BME280;15183;51.350;11.102;2023-08-30T12:01:07;99133.19;;;30.35;38.07
27805;BME280;15183;51.350;11.102;2023-08-30T12:03:34;99132.78;;;30.32;37.48
27805;BME280;15183;51.350;11.102;2023-08-30T12:06:01;99122.25;;;30.31;37.82
27805;BME280;15183;51.350;11.102;2023-08-30T12:08:30;99141.47;;;30.45;37.51
27805;BME280;15183;51.350;11.102;2023-08-30T12:10:57;99117.28;;;30.47;37.66
27805;BME280;15183;51.350;11.102;2023-08-30T12:13:34;99105.22;;;30.56;37.54
27805;BME280;15183;51.350;11.102;2023-08-30T12:16:03;99117.88;;;30.75;37.51
27805;BME280;15183;51.350;11.102;2023-08-30T12:18:32;99102.66;;;30.74;37.44
27805;BME280;15183;51.350;11.102;2023-08-30T12:21:03;99110.19;;;30.95;36.76
27805;BME280;15183;51.350;11.102;2023-08-30T12:23:33;99115.66;;;30.95;36.47
27805;BME280;15183;51.350;11.102;2023-08-30T12:26:07;99120.00;;;31.00;36.88
27805;BME280;15183;51.350;11.102;2023-08-30T12:28:37;99117.66;;;31.02;36.77
27805;BME280;15183;51.350;11.102;2023-08-30T12:31:04;99080.06;;;30.88;35.87
27805;BME280;15183;51.350;11.102;2023-08-30T12:33:31;99118.91;;;31.15;36.73
27805;BME280;15183;51.350;11.102;2023-08-30T12:35:59;99114.25;;;31.19;36.42
27805;BME280;15183;51.350;11.102;2023-08-30T12:38:25;99117.44;;;31.29;35.92
27805;BME280;15183;51.350;11.102;2023-08-30T12:40:54;99101.00;;;31.25;36.25
27805;BME280;15183;51.350;11.102;2023-08-30T12:43:22;99109.22;;;31.29;36.07
27805;BME280;15183;51.350;11.102;2023-08-30T12:45:50;99112.31;;;31.24;35.77
27805;BME280;15183;51.350;11.102;2023-08-30T12:48:18;99094.25;;;31.12;35.15
27805;BME280;15183;51.350;11.102;2023-08-30T12:50:46;99111.50;;;31.19;35.36
27805;BME280;15183;51.350;11.102;2023-08-30T12:53:14;99109.50;;;31.09;35.81
27805;BME280;15183;51.350;11.102;2023-08-30T12:55:45;99087.91;;;30.93;35.46
27805;BME280;15183;51.350;11.102;2023-08-30T12:58:11;99090.56;;;30.82;36.02
27805;BME280;15183;51.350;11.102;2023-08-30T13:00:41;99095.69;;;30.84;35.90
27805;BME280;15183;51.350;11.102;2023-08-30T13:03:07;99094.88;;;30.83;36.17
27805;BME280;15183;51.350;11.102;2023-08-30T13:05:34;99094.91;;;30.87;35.88
27805;BME280;15183;51.350;11.102;2023-08-30T13:08:03;99098.84;;;30.93;35.86